Terminal Aerodrome Forecast
Issued by NWS Knoxville/Tri Cities, TN

Home | Current Version | Previous Version | Text Only | Print | Product List | Glossary On
Versions: 1 2 3 4 5 6 7 8 9 10 11 12 13 14 15 16 17 18 19 20 21 22 23 24 25 26 27 28 29 30 31 32 33 34 35 36 37 38 39 40 41 42 43 44 45
000
FTUS44 KMRX 190533
TAFTYS
TAF
KTYS 190533Z 1906/2006 00000KT P6SM BKN250
     FM191300 04004KT P6SM SCT050 BKN100
     FM192000 08006KT P6SM VCSH SCT030 BKN040
     FM200200 10005KT 6SM -RA BR OVC020
     FM200500 16007KT 4SM -RA BR OVC007=

USA.gov is the U.S. government's official web portal to all federal, state and local government web resources and services.